sensor_id;sensor_type;location;lat;lon;timestamp;P1;durP1;ratioP1;P2;durP2;ratioP2
62509;SDS011;48558;48.242;11.654;2022-07-29T00:01:15;2.90;;;1.10;;
62509;SDS011;48558;48.242;11.654;2022-07-29T00:06:21;1.00;;;1.00;;
62509;SDS011;48558;48.242;11.654;2022-07-29T00:11:24;1.30;;;1.20;;
62509;SDS011;48558;48.242;11.654;2022-07-29T00:16:27;1.10;;;1.10;;
62509;SDS011;48558;48.242;11.654;2022-07-29T00:21:33;1.67;;;1.10;;
62509;SDS011;48558;48.242;11.654;2022-07-29T00:26:37;1.23;;;1.17;;
62509;SDS011;48558;48.242;11.654;2022-07-29T00:31:40;4.18;;;1.58;;
62509;SDS011;48558;48.242;11.654;2022-07-29T00:36:43;1.45;;;1.30;;
62509;SDS011;48558;48.242;11.654;2022-07-29T00:41:46;1.95;;;0.95;;
62509;SDS011;48558;48.242;11.654;2022-07-29T00:46:50;1.88;;;1.30;;
62509;SDS011;48558;48.242;11.654;2022-07-29T00:51:53;1.20;;;1.20;;
62509;SDS011;48558;48.242;11.654;2022-07-29T00:56:59;1.10;;;1.10;;
62509;SDS011;48558;48.242;11.654;2022-07-29T01:02:03;1.40;;;1.30;;
62509;SDS011;48558;48.242;11.654;2022-07-29T01:07:06;1.40;;;1.30;;
62509;SDS011;48558;48.242;11.654;2022-07-29T01:12:10;1.60;;;1.30;;
62509;SDS011;48558;48.242;11.654;2022-07-29T01:18:18;3.97;;;1.50;;
62509;SDS011;48558;48.242;11.654;2022-07-29T01:28:37;3.00;;;1.40;;
62509;SDS011;48558;48.242;11.654;2022-07-29T01:33:43;1.40;;;1.40;;
62509;SDS011;48558;48.242;11.654;2022-07-29T01:38:54;1.65;;;1.50;;
62509;SDS011;48558;48.242;11.654;2022-07-29T01:44:17;1.58;;;1.50;;
62509;SDS011;48558;48.242;11.654;2022-07-29T01:49:35;1.88;;;1.17;;
62509;SDS011;48558;48.242;11.654;2022-07-29T01:54:43;1.52;;;1.42;;
62509;SDS011;48558;48.242;11.654;2022-07-29T02:04:56;1.52;;;1.38;;
62509;SDS011;48558;48.242;11.654;2022-07-29T02:10:01;1.48;;;1.38;;
62509;SDS011;48558;48.242;11.654;2022-07-29T02:15:06;1.75;;;1.45;;
62509;SDS011;48558;48.242;11.654;2022-07-29T02:25:06;1.42;;;1.33;;
62509;SDS011;48558;48.242;11.654;2022-07-29T02:30:15;1.35;;;1.30;;
62509;SDS011;48558;48.242;11.654;2022-07-29T02:35:20;4.20;;;1.60;;
62509;SDS011;48558;48.242;11.654;2022-07-29T02:40:24;1.65;;;1.30;;
62509;SDS011;48558;48.242;11.654;2022-07-29T02:45:28;2.47;;;1.60;;
62509;SDS011;48558;48.242;11.654;2022-07-29T02:50:34;2.22;;;1.42;;
62509;SDS011;48558;48.242;11.654;2022-07-29T02:55:49;1.75;;;1.50;;
62509;SDS011;48558;48.242;11.654;2022-07-29T03:01:01;1.63;;;1.40;;
62509;SDS011;48558;48.242;11.654;2022-07-29T03:06:07;1.45;;;1.35;;
62509;SDS011;48558;48.242;11.654;2022-07-29T03:11:32;1.67;;;1.58;;
62509;SDS011;48558;48.242;11.654;2022-07-29T03:16:50;1.88;;;1.63;;
62509;SDS011;48558;48.242;11.654;2022-07-29T03:21:56;1.55;;;1.48;;
62509;SDS011;48558;48.242;11.654;2022-07-29T03:27:00;2.03;;;1.55;;
62509;SDS011;48558;48.242;11.654;2022-07-29T03:32:05;2.55;;;1.80;;
62509;SDS011;48558;48.242;11.654;2022-07-29T03:37:10;1.60;;;1.50;;
62509;SDS011;48558;48.242;11.654;2022-07-29T03:42:16;2.22;;;1.40;;
62509;SDS011;48558;48.242;11.654;2022-07-29T03:47:24;1.52;;;1.42;;
62509;SDS011;48558;48.242;11.654;2022-07-29T03:52:50;1.48;;;1.40;;
62509;SDS011;48558;48.242;11.654;2022-07-29T03:57:55;1.67;;;1.58;;
62509;SDS011;48558;48.242;11.654;2022-07-29T04:03:01;2.10;;;1.83;;
62509;SDS011;48558;48.242;11.654;2022-07-29T04:08:11;1.80;;;1.70;;
62509;SDS011;48558;48.242;11.654;2022-07-29T04:13:15;1.70;;;1.60;;
62509;SDS011;48558;48.242;11.654;2022-07-29T04:18:19;4.55;;;1.60;;
62509;SDS011;48558;48.242;11.654;2022-07-29T04:23:25;1.98;;;1.77;;
62509;SDS011;48558;48.242;11.654;2022-07-29T04:28:29;2.28;;;1.90;;
62509;SDS011;48558;48.242;11.654;2022-07-29T04:33:33;4.03;;;1.92;;
62509;SDS011;48558;48.242;11.654;2022-07-29T04:38:39;4.72;;;1.70;;
62509;SDS011;48558;48.242;11.654;2022-07-29T04:43:46;2.35;;;1.90;;
62509;SDS011;48558;48.242;11.654;2022-07-29T04:48:50;16.55;;;2.00;;
62509;SDS011;48558;48.242;11.654;2022-07-29T04:53:53;4.05;;;2.10;;
62509;SDS011;48558;48.242;11.654;2022-07-29T04:58:57;2.67;;;2.08;;
62509;SDS011;48558;48.242;11.654;2022-07-29T05:04:01;2.10;;;2.00;;
62509;SDS011;48558;48.242;11.654;2022-07-29T05:09:04;1.58;;;1.50;;
62509;SDS011;48558;48.242;11.654;2022-07-29T05:14:09;3.10;;;1.88;;
62509;SDS011;48558;48.242;11.654;2022-07-29T05:19:13;2.42;;;1.80;;
62509;SDS011;48558;48.242;11.654;2022-07-29T05:24:16;4.20;;;1.73;;
62509;SDS011;48558;48.242;11.654;2022-07-29T05:29:21;2.80;;;1.67;;
62509;SDS011;48558;48.242;11.654;2022-07-29T05:34:47;3.10;;;1.58;;
62509;SDS011;48558;48.242;11.654;2022-07-29T05:39:52;1.52;;;1.45;;
62509;SDS011;48558;48.242;11.654;2022-07-29T05:44:58;1.73;;;1.40;;
62509;SDS011;48558;48.242;11.654;2022-07-29T05:50:02;3.50;;;1.67;;
62509;SDS011;48558;48.242;11.654;2022-07-29T05:55:07;1.33;;;1.23;;
62509;SDS011;48558;48.242;11.654;2022-07-29T06:00:10;4.28;;;1.38;;
62509;SDS011;48558;48.242;11.654;2022-07-29T06:05:14;1.67;;;1.50;;
62509;SDS011;48558;48.242;11.654;2022-07-29T06:10:18;2.78;;;1.20;;
62509;SDS011;48558;48.242;11.654;2022-07-29T06:20:54;3.05;;;1.20;;
62509;SDS011;48558;48.242;11.654;2022-07-29T06:26:31;1.25;;;1.15;;
62509;SDS011;48558;48.242;11.654;2022-07-29T06:32:20;1.10;;;1.10;;
62509;SDS011;48558;48.242;11.654;2022-07-29T06:37:28;1.80;;;1.25;;
62509;SDS011;48558;48.242;11.654;2022-07-29T06:42:56;4.32;;;1.60;;
62509;SDS011;48558;48.242;11.654;2022-07-29T06:55:23;1.38;;;1.17;;
62509;SDS011;48558;48.242;11.654;2022-07-29T07:00:38;1.58;;;1.05;;
62509;SDS011;48558;48.242;11.654;2022-07-29T07:05:42;1.67;;;1.30;;
62509;SDS011;48558;48.242;11.654;2022-07-29T07:10:45;1.92;;;1.20;;
62509;SDS011;48558;48.242;11.654;2022-07-29T07:15:51;2.45;;;1.45;;
62509;SDS011;48558;48.242;11.654;2022-07-29T07:20:59;1.43;;;1.33;;
62509;SDS011;48558;48.242;11.654;2022-07-29T07:26:02;1.40;;;1.30;;
62509;SDS011;48558;48.242;11.654;2022-07-29T07:31:05;3.30;;;1.40;;
62509;SDS011;48558;48.242;11.654;2022-07-29T07:36:09;2.28;;;1.52;;
62509;SDS011;48558;48.242;11.654;2022-07-29T07:41:12;1.60;;;1.50;;
62509;SDS011;48558;48.242;11.654;2022-07-29T07:46:15;1.27;;;1.27;;
62509;SDS011;48558;48.242;11.654;2022-07-29T07:51:21;1.75;;;1.40;;
62509;SDS011;48558;48.242;11.654;2022-07-29T07:56:27;2.75;;;1.55;;
62509;SDS011;48558;48.242;11.654;2022-07-29T08:01:36;2.35;;;2.15;;
62509;SDS011;48558;48.242;11.654;2022-07-29T08:06:57;2.15;;;1.40;;
62509;SDS011;48558;48.242;11.654;2022-07-29T08:12:01;1.30;;;1.20;;
62509;SDS011;48558;48.242;11.654;2022-07-29T08:17:08;3.93;;;1.40;;
62509;SDS011;48558;48.242;11.654;2022-07-29T08:22:11;1.30;;;1.20;;
62509;SDS011;48558;48.242;11.654;2022-07-29T08:27:14;3.80;;;1.20;;
62509;SDS011;48558;48.242;11.654;2022-07-29T08:32:37;1.27;;;1.15;;
62509;SDS011;48558;48.242;11.654;2022-07-29T08:37:57;1.15;;;1.08;;
62509;SDS011;48558;48.242;11.654;2022-07-29T08:43:06;1.40;;;1.30;;
62509;SDS011;48558;48.242;11.654;2022-07-29T08:48:11;2.65;;;1.35;;
62509;SDS011;48558;48.242;11.654;2022-07-29T08:53:16;4.15;;;1.40;;
62509;SDS011;48558;48.242;11.654;2022-07-29T08:58:20;2.22;;;1.38;;
62509;SDS011;48558;48.242;11.654;2022-07-29T09:03:31;1.10;;;1.10;;
62509;SDS011;48558;48.242;11.654;2022-07-29T09:08:35;1.50;;;1.40;;
62509;SDS011;48558;48.242;11.654;2022-07-29T09:13:39;1.40;;;1.30;;
62509;SDS011;48558;48.242;11.654;2022-07-29T09:18:43;2.47;;;1.40;;
62509;SDS011;48558;48.242;11.654;2022-07-29T09:29:08;2.30;;;1.55;;
62509;SDS011;48558;48.242;11.654;2022-07-29T09:34:27;1.60;;;1.50;;
62509;SDS011;48558;48.242;11.654;2022-07-29T09:39:33;1.50;;;1.40;;
62509;SDS011;48558;48.242;11.654;2022-07-29T09:44:45;2.80;;;1.65;;
62509;SDS011;48558;48.242;11.654;2022-07-29T09:49:58;1.65;;;1.55;;
62509;SDS011;48558;48.242;11.654;2022-07-29T09:55:06;1.60;;;1.50;;
62509;SDS011;48558;48.242;11.654;2022-07-29T10:00:19;3.28;;;1.88;;
62509;SDS011;48558;48.242;11.654;2022-07-29T10:05:27;1.85;;;1.65;;
62509;SDS011;48558;48.242;11.654;2022-07-29T10:10:39;2.60;;;1.75;;
62509;SDS011;48558;48.242;11.654;2022-07-29T10:15:44;2.60;;;1.77;;
62509;SDS011;48558;48.242;11.654;2022-07-29T10:20:48;2.60;;;1.75;;
62509;SDS011;48558;48.242;11.654;2022-07-29T10:25:52;1.70;;;1.60;;
62509;SDS011;48558;48.242;11.654;2022-07-29T10:30:58;1.90;;;1.80;;
62509;SDS011;48558;48.242;11.654;2022-07-29T10:46:53;3.00;;;2.10;;
62509;SDS011;48558;48.242;11.654;2022-07-29T11:02:44;2.00;;;1.90;;
62509;SDS011;48558;48.242;11.654;2022-07-29T11:24:19;2.45;;;2.00;;
62509;SDS011;48558;48.242;11.654;2022-07-29T11:29:33;1.83;;;1.70;;
62509;SDS011;48558;48.242;11.654;2022-07-29T11:34:44;1.75;;;1.65;;
62509;SDS011;48558;48.242;11.654;2022-07-29T11:45:21;1.30;;;1.25;;
62509;SDS011;48558;48.242;11.654;2022-07-29T11:50:46;1.70;;;1.55;;
62509;SDS011;48558;48.242;11.654;2022-07-29T11:55:54;1.67;;;1.58;;
62509;SDS011;48558;48.242;11.654;2022-07-29T12:00:59;1.75;;;1.55;;
62509;SDS011;48558;48.242;11.654;2022-07-29T12:06:23;1.67;;;1.50;;
62509;SDS011;48558;48.242;11.654;2022-07-29T12:11:27;3.00;;;1.52;;
62509;SDS011;48558;48.242;11.654;2022-07-29T12:16:34;1.60;;;1.50;;
62509;SDS011;48558;48.242;11.654;2022-07-29T12:21:52;1.88;;;1.58;;
62509;SDS011;48558;48.242;11.654;2022-07-29T12:27:00;1.75;;;1.65;;
62509;SDS011;48558;48.242;11.654;2022-07-29T12:32:04;1.67;;;1.58;;
62509;SDS011;48558;48.242;11.654;2022-07-29T12:37:23;1.70;;;1.60;;
62509;SDS011;48558;48.242;11.654;2022-07-29T12:48:14;1.73;;;1.50;;
62509;SDS011;48558;48.242;11.654;2022-07-29T12:53:17;2.05;;;1.50;;
62509;SDS011;48558;48.242;11.654;2022-07-29T12:58:36;2.55;;;1.90;;
62509;SDS011;48558;48.242;11.654;2022-07-29T13:03:55;4.68;;;1.85;;
62509;SDS011;48558;48.242;11.654;2022-07-29T13:19:39;1.60;;;1.50;;
62509;SDS011;48558;48.242;11.654;2022-07-29T13:24:51;4.05;;;1.92;;
62509;SDS011;48558;48.242;11.654;2022-07-29T13:29:59;2.28;;;1.98;;
62509;SDS011;48558;48.242;11.654;2022-07-29T13:35:07;1.95;;;1.60;;
62509;SDS011;48558;48.242;11.654;2022-07-29T13:40:11;3.17;;;1.50;;
62509;SDS011;48558;48.242;11.654;2022-07-29T13:45:14;3.40;;;1.70;;
62509;SDS011;48558;48.242;11.654;2022-07-29T13:50:20;3.15;;;1.45;;
62509;SDS011;48558;48.242;11.654;2022-07-29T13:55:23;1.83;;;1.50;;
62509;SDS011;48558;48.242;11.654;2022-07-29T14:00:27;1.90;;;1.70;;
62509;SDS011;48558;48.242;11.654;2022-07-29T14:05:31;1.60;;;1.50;;
62509;SDS011;48558;48.242;11.654;2022-07-29T14:10:35;2.35;;;1.60;;
62509;SDS011;48558;48.242;11.654;2022-07-29T14:15:39;1.40;;;1.30;;
62509;SDS011;48558;48.242;11.654;2022-07-29T14:20:42;1.92;;;1.67;;
62509;SDS011;48558;48.242;11.654;2022-07-29T14:25:45;3.67;;;1.77;;
62509;SDS011;48558;48.242;11.654;2022-07-29T14:30:50;1.42;;;1.33;;
62509;SDS011;48558;48.242;11.654;2022-07-29T14:35:53;2.28;;;1.50;;
62509;SDS011;48558;48.242;11.654;2022-07-29T14:41:02;3.08;;;1.50;;
62509;SDS011;48558;48.242;11.654;2022-07-29T14:46:05;1.40;;;1.30;;
62509;SDS011;48558;48.242;11.654;2022-07-29T14:51:09;1.42;;;1.33;;
62509;SDS011;48558;48.242;11.654;2022-07-29T14:56:13;2.25;;;1.33;;
62509;SDS011;48558;48.242;11.654;2022-07-29T15:01:36;3.92;;;1.40;;
62509;SDS011;48558;48.242;11.654;2022-07-29T15:06:40;1.80;;;1.70;;
62509;SDS011;48558;48.242;11.654;2022-07-29T15:11:43;3.80;;;1.65;;
62509;SDS011;48558;48.242;11.654;2022-07-29T15:16:47;1.33;;;1.20;;
62509;SDS011;48558;48.242;11.654;2022-07-29T15:21:53;2.15;;;1.60;;
62509;SDS011;48558;48.242;11.654;2022-07-29T15:27:00;3.42;;;1.70;;
62509;SDS011;48558;48.242;11.654;2022-07-29T15:32:04;3.63;;;1.83;;
62509;SDS011;48558;48.242;11.654;2022-07-29T15:37:07;2.20;;;2.00;;
62509;SDS011;48558;48.242;11.654;2022-07-29T15:42:12;2.30;;;1.88;;
62509;SDS011;48558;48.242;11.654;2022-07-29T15:47:21;2.90;;;2.28;;
62509;SDS011;48558;48.242;11.654;2022-07-29T15:52:27;2.88;;;2.08;;
62509;SDS011;48558;48.242;11.654;2022-07-29T15:57:30;2.78;;;1.90;;
62509;SDS011;48558;48.242;11.654;2022-07-29T16:02:36;2.20;;;2.00;;
62509;SDS011;48558;48.242;11.654;2022-07-29T16:07:39;2.30;;;2.08;;
62509;SDS011;48558;48.242;11.654;2022-07-29T16:12:45;2.90;;;1.92;;
62509;SDS011;48558;48.242;11.654;2022-07-29T16:17:48;5.57;;;2.10;;
62509;SDS011;48558;48.242;11.654;2022-07-29T16:22:53;3.83;;;2.20;;
62509;SDS011;48558;48.242;11.654;2022-07-29T16:27:56;2.75;;;2.00;;
62509;SDS011;48558;48.242;11.654;2022-07-29T16:33:01;2.45;;;2.25;;
62509;SDS011;48558;48.242;11.654;2022-07-29T16:38:09;4.35;;;2.13;;
62509;SDS011;48558;48.242;11.654;2022-07-29T16:43:12;3.40;;;2.15;;
62509;SDS011;48558;48.242;11.654;2022-07-29T16:48:16;3.60;;;2.13;;
62509;SDS011;48558;48.242;11.654;2022-07-29T16:53:20;2.85;;;1.90;;
62509;SDS011;48558;48.242;11.654;2022-07-29T16:58:29;5.18;;;2.22;;
62509;SDS011;48558;48.242;11.654;2022-07-29T17:09:03;3.78;;;2.08;;
62509;SDS011;48558;48.242;11.654;2022-07-29T17:14:08;2.47;;;2.28;;
62509;SDS011;48558;48.242;11.654;2022-07-29T17:19:11;2.38;;;2.17;;
62509;SDS011;48558;48.242;11.654;2022-07-29T17:24:15;2.10;;;2.00;;
62509;SDS011;48558;48.242;11.654;2022-07-29T17:29:18;2.35;;;2.15;;
62509;SDS011;48558;48.242;11.654;2022-07-29T17:34:21;4.38;;;2.55;;
62509;SDS011;48558;48.242;11.654;2022-07-29T17:39:24;1.95;;;1.85;;
62509;SDS011;48558;48.242;11.654;2022-07-29T17:44:27;8.60;;;2.67;;
62509;SDS011;48558;48.242;11.654;2022-07-29T17:49:31;5.85;;;2.40;;
62509;SDS011;48558;48.242;11.654;2022-07-29T17:54:37;3.17;;;1.90;;
62509;SDS011;48558;48.242;11.654;2022-07-29T17:59:40;1.95;;;1.60;;
62509;SDS011;48558;48.242;11.654;2022-07-29T18:04:44;1.00;;;1.00;;
62509;SDS011;48558;48.242;11.654;2022-07-29T18:09:51;2.95;;;1.40;;
62509;SDS011;48558;48.242;11.654;2022-07-29T18:15:02;0.80;;;0.80;;
62509;SDS011;48558;48.242;11.654;2022-07-29T18:20:06;1.30;;;0.90;;
62509;SDS011;48558;48.242;11.654;2022-07-29T18:25:10;2.22;;;1.17;;
62509;SDS011;48558;48.242;11.654;2022-07-29T18:30:14;3.42;;;1.27;;
62509;SDS011;48558;48.242;11.654;2022-07-29T18:35:20;1.08;;;0.93;;
62509;SDS011;48558;48.242;11.654;2022-07-29T18:40:24;0.80;;;0.80;;
62509;SDS011;48558;48.242;11.654;2022-07-29T18:45:30;1.25;;;1.15;;
62509;SDS011;48558;48.242;11.654;2022-07-29T18:50:33;4.45;;;1.10;;
62509;SDS011;48558;48.242;11.654;2022-07-29T18:55:37;6.22;;;1.00;;
62509;SDS011;48558;48.242;11.654;2022-07-29T19:01:29;0.95;;;0.90;;
62509;SDS011;48558;48.242;11.654;2022-07-29T19:07:28;5.72;;;1.33;;
62509;SDS011;48558;48.242;11.654;2022-07-29T19:32:28;3.35;;;1.20;;
62509;SDS011;48558;48.242;11.654;2022-07-29T19:38:44;1.95;;;1.23;;
62509;SDS011;48558;48.242;11.654;2022-07-29T19:51:10;2.17;;;1.80;;
62509;SDS011;48558;48.242;11.654;2022-07-29T19:57:33;1.63;;;1.52;;
62509;SDS011;48558;48.242;11.654;2022-07-29T20:08:26;2.28;;;1.92;;
62509;SDS011;48558;48.242;11.654;2022-07-29T20:13:32;4.55;;;1.90;;
62509;SDS011;48558;48.242;11.654;2022-07-29T20:18:47;2.73;;;2.50;;
62509;SDS011;48558;48.242;11.654;2022-07-29T20:30:26;2.40;;;2.20;;
62509;SDS011;48558;48.242;11.654;2022-07-29T20:35:33;3.40;;;1.88;;
62509;SDS011;48558;48.242;11.654;2022-07-29T20:40:37;2.10;;;2.00;;
62509;SDS011;48558;48.242;11.654;2022-07-29T20:45:41;1.80;;;1.70;;
62509;SDS011;48558;48.242;11.654;2022-07-29T20:50:44;2.13;;;2.03;;
62509;SDS011;48558;48.242;11.654;2022-07-29T20:55:48;3.72;;;2.45;;
62509;SDS011;48558;48.242;11.654;2022-07-29T21:00:52;2.67;;;2.47;;
62509;SDS011;48558;48.242;11.654;2022-07-29T21:05:55;2.80;;;2.58;;
62509;SDS011;48558;48.242;11.654;2022-07-29T21:11:01;4.95;;;2.40;;
62509;SDS011;48558;48.242;11.654;2022-07-29T21:16:05;3.45;;;2.25;;
62509;SDS011;48558;48.242;11.654;2022-07-29T21:21:15;3.25;;;2.55;;
62509;SDS011;48558;48.242;11.654;2022-07-29T21:26:19;4.55;;;2.50;;
62509;SDS011;48558;48.242;11.654;2022-07-29T21:31:22;2.67;;;2.40;;
62509;SDS011;48558;48.242;11.654;2022-07-29T21:36:25;2.55;;;2.30;;
62509;SDS011;48558;48.242;11.654;2022-07-29T21:41:48;2.30;;;2.10;;
62509;SDS011;48558;48.242;11.654;2022-07-29T21:46:54;2.20;;;2.10;;
62509;SDS011;48558;48.242;11.654;2022-07-29T21:51:58;2.40;;;2.22;;
62509;SDS011;48558;48.242;11.654;2022-07-29T21:57:05;3.05;;;2.20;;
62509;SDS011;48558;48.242;11.654;2022-07-29T22:02:09;3.10;;;2.00;;
62509;SDS011;48558;48.242;11.654;2022-07-29T22:07:12;2.22;;;2.03;;
62509;SDS011;48558;48.242;11.654;2022-07-29T22:12:18;3.10;;;1.95;;
62509;SDS011;48558;48.242;11.654;2022-07-29T22:17:24;2.00;;;1.90;;
62509;SDS011;48558;48.242;11.654;2022-07-29T22:22:27;4.13;;;2.13;;
62509;SDS011;48558;48.242;11.654;2022-07-29T22:27:31;2.40;;;2.15;;
62509;SDS011;48558;48.242;11.654;2022-07-29T22:32:34;3.65;;;2.55;;
62509;SDS011;48558;48.242;11.654;2022-07-29T22:37:37;2.25;;;2.10;;
62509;SDS011;48558;48.242;11.654;2022-07-29T22:42:42;3.03;;;2.30;;
62509;SDS011;48558;48.242;11.654;2022-07-29T22:47:45;4.15;;;2.58;;
62509;SDS011;48558;48.242;11.654;2022-07-29T22:52:52;3.42;;;2.20;;
62509;SDS011;48558;48.242;11.654;2022-07-29T22:57:55;2.17;;;2.08;;
62509;SDS011;48558;48.242;11.654;2022-07-29T23:02:59;2.67;;;2.00;;
62509;SDS011;48558;48.242;11.654;2022-07-29T23:08:02;3.90;;;1.95;;
62509;SDS011;48558;48.242;11.654;2022-07-29T23:13:08;2.30;;;2.20;;
62509;SDS011;48558;48.242;11.654;2022-07-29T23:18:11;2.17;;;2.08;;
62509;SDS011;48558;48.242;11.654;2022-07-29T23:23:17;2.10;;;1.92;;
62509;SDS011;48558;48.242;11.654;2022-07-29T23:28:21;2.03;;;1.83;;
62509;SDS011;48558;48.242;11.654;2022-07-29T23:33:24;1.90;;;1.80;;
62509;SDS011;48558;48.242;11.654;2022-07-29T23:38:27;3.50;;;2.00;;
62509;SDS011;48558;48.242;11.654;2022-07-29T23:43:33;2.13;;;1.92;;
62509;SDS011;48558;48.242;11.654;2022-07-29T23:48:37;2.53;;;2.03;;
62509;SDS011;48558;48.242;11.654;2022-07-29T23:53:40;2.45;;;1.80;;
62509;SDS011;48558;48.242;11.654;2022-07-29T23:58:55;1.98;;;1.70;;
